Time;durP1;ratioP1;P1;durP2;ratioP2;P2;SDS_P1;SDS_P2;PMS_P1;PMS_P2;Temp;Humidity;BMP_temperature;BMP_pressure;BME280_temperature;BME280_humidity;BME280_pressure;Samples;Min_cycle;Max_cycle;Signal;HPM_P1;HPM_P2
2022/04/19 00:00:56;;;;;;;9.60;3.85;;;;;;;6.26;77.64;100157.63;21011683;28;20094;-65
2022/04/19 00:10:59;;;;;;;9.10;4.15;;;;;;;6.16;78.65;100154.19;20999270;28;20113;-66
2022/04/19 00:21:02;;;;;;;9.00;4.30;;;;;;;6.12;78.79;100154.19;21013406;28;20059;-66
2022/04/19 00:31:06;;;;;;;8.80;4.00;;;;;;;5.91;79.88;100150.75;21013551;28;20499;-66
2022/04/19 00:41:08;;;;;;;9.45;3.80;;;;;;;5.77;81.72;100136.88;21018484;28;20397;-66
2022/04/19 00:51:10;;;;;;;8.70;4.25;;;;;;;5.66;82.79;100133.44;21008116;28;20058;-66
2022/04/19 01:01:12;;;;;;;8.40;4.20;;;;;;;5.65;83.38;100131.66;21027685;28;20086;-66
2022/04/19 01:21:50;;;;;;;8.70;4.18;;;;;;;5.57;82.66;100120.44;21024573;28;20094;-65
2022/04/19 01:31:53;;;;;;;9.98;5.13;;;;;;;5.54;83.39;100117.81;21025280;28;20053;-66
2022/04/19 01:41:55;;;;;;;9.32;5.22;;;;;;;5.35;85.26;100116.94;21026360;28;20048;-66
2022/04/19 01:51:56;;;;;;;11.30;4.65;;;;;;;5.26;86.43;100116.94;21023188;28;20056;-66
2022/04/19 02:01:58;;;;;;;8.30;3.53;;;;;;;5.15;85.41;100114.34;21028097;28;20455;-67
2022/04/19 02:11:59;;;;;;;8.45;4.47;;;;;;;5.16;84.83;100108.28;21019318;28;20501;-66
2022/04/19 02:22:05;;;;;;;5.93;3.53;;;;;;;5.12;85.35;100102.22;21025515;28;20041;-66
2022/04/19 02:32:07;;;;;;;7.15;3.97;;;;;;;4.96;86.51;100097.00;21024063;28;20050;-66
2022/04/19 02:42:11;;;;;;;9.40;3.77;;;;;;;4.83;87.72;100088.31;21012133;28;20041;-66
2022/04/19 02:52:12;;;;;;;8.73;4.70;;;;;;;4.75;87.45;100088.31;21024993;28;20078;-67
2022/04/19 03:02:14;;;;;;;8.48;4.53;;;;;;;4.64;87.49;100087.41;21019127;28;20513;-67
2022/04/19 03:12:16;;;;;;;8.75;3.92;;;;;;;4.64;87.13;100084.81;21018935;28;20541;-67
2022/04/19 03:22:17;;;;;;;12.40;4.32;;;;;;;4.51;87.48;100096.88;21022362;28;20086;-67
2022/04/19 03:32:19;;;;;;;10.10;4.32;;;;;;;4.41;89.68;100087.34;21008758;28;20051;-66
2022/04/19 03:42:21;;;;;;;9.88;3.90;;;;;;;4.42;87.67;100086.47;21017568;28;20043;-67
2022/04/19 03:52:22;;;;;;;7.82;3.20;;;;;;;4.19;88.48;100086.34;21017490;28;20384;-67
2022/04/19 04:02:24;;;;;;;9.88;3.90;;;;;;;4.15;89.60;100099.28;21010318;28;20048;-67
2022/04/19 04:12:26;;;;;;;7.40;4.10;;;;;;;4.07;89.72;100094.03;21020841;28;20047;-67
2022/04/19 04:22:28;;;;;;;7.00;3.75;;;;;;;3.89;89.93;100102.59;21011325;28;20056;-67
2022/04/19 04:32:29;;;;;;;7.05;3.60;;;;;;;3.63;92.02;100094.63;21031900;28;20106;-68
2022/04/19 04:42:31;;;;;;;8.23;4.40;;;;;;;3.69;92.61;100097.28;21048138;28;20055;-68
2022/04/19 04:52:32;;;;;;;9.63;4.78;;;;;;;3.91;92.38;100105.19;21034605;28;20492;-67
2022/04/19 05:02:34;;;;;;;9.38;4.60;;;;;;;4.11;89.91;100108.75;21042331;28;20040;-67
2022/04/19 05:12:35;;;;;;;12.25;6.13;;;;;;;4.48;88.35;100109.81;21043755;28;20458;-67
2022/04/19 05:22:37;;;;;;;10.15;5.00;;;;;;;4.65;87.82;100117.69;21036425;28;20132;-67
2022/04/19 05:32:39;;;;;;;10.25;4.90;;;;;;;4.75;87.78;100116.84;21045438;28;20052;-65
2022/04/19 05:42:41;;;;;;;13.15;5.45;;;;;;;5.17;85.54;100120.38;21025052;28;20079;-64
2022/04/19 05:52:43;;;;;;;10.98;5.90;;;;;;;5.75;81.63;100127.34;21025092;28;20048;-64
2022/04/19 06:13:05;;;;;;;12.52;5.90;;;;;;;6.50;76.85;100129.84;21019192;28;20059;-65
2022/04/19 06:23:06;;;;;;;10.60;4.90;;;;;;;6.92;78.32;100134.84;21024783;28;20074;-65
2022/04/19 06:33:08;;;;;;;12.82;6.30;;;;;;;7.14;75.79;100135.59;21025893;28;20078;-65
2022/04/19 06:43:09;;;;;;;8.48;4.57;;;;;;;7.42;77.13;100125.84;21020009;28;20469;-65
2022/04/19 06:53:11;;;;;;;9.95;4.05;;;;;;;7.74;76.04;100132.56;21025366;28;20052;-65
2022/04/19 07:03:12;;;;;;;8.82;3.78;;;;;;;8.19;70.16;100140.81;21014157;28;20511;-65
2022/04/19 07:13:14;;;;;;;8.15;3.90;;;;;;;8.81;62.68;100133.19;21008991;28;20094;-64
2022/04/19 07:33:38;;;;;;;5.78;3.30;;;;;;;9.26;59.02;100129.09;21010401;28;20471;-65
2022/04/19 07:43:43;;;;;;;6.82;3.25;;;;;;;9.70;57.29;100114.47;21014307;28;20047;-65
2022/04/19 07:53:44;;;;;;;9.13;4.10;;;;;;;9.95;54.53;100104.44;21014712;28;20043;-66
2022/04/19 08:03:51;;;;;;;9.50;4.03;;;;;;;10.15;56.53;100101.44;21005503;28;20121;-66
2022/04/19 08:13:52;;;;;;;7.93;3.90;;;;;;;10.64;54.88;100090.06;21016079;28;20048;-68
2022/04/19 08:23:54;;;;;;;10.90;4.40;;;;;;;10.84;55.39;100080.03;21009788;28;20044;-68
2022/04/19 08:33:55;;;;;;;10.88;4.20;;;;;;;11.31;54.97;100083.31;21007199;28;20431;-65
2022/04/19 08:43:57;;;;;;;10.10;4.10;;;;;;;11.43;52.62;100072.53;21016347;28;20048;-63
2022/04/19 09:04:22;;;;;;;8.27;4.45;;;;;;;12.69;50.36;100061.28;21010009;28;20448;-64
2022/04/19 09:14:25;;;;;;;12.13;4.68;;;;;;;12.96;49.72;100057.81;21017305;28;20040;-64
2022/04/19 09:24:27;;;;;;;10.40;4.75;;;;;;;13.55;45.70;100048.94;21023259;28;20369;-64
2022/04/19 09:34:33;;;;;;;8.02;4.35;;;;;;;13.83;45.66;100044.44;21025516;28;20059;-64
2022/04/19 09:44:50;;;;;;;10.75;4.28;;;;;;;14.11;46.93;100025.06;21021469;28;20106;-67
2022/04/19 09:55:04;;;;;;;10.18;4.35;;;;;;;14.70;44.56;100007.94;21015064;28;20416;-68
2022/04/19 10:15:28;;;;;;;10.10;4.68;;;;;;;15.18;41.13;99994.59;21020257;28;20101;-67
2022/04/19 10:25:40;;;;;;;10.60;4.95;;;;;;;15.37;40.83;99977.06;21016427;28;20041;-67
2022/04/19 10:36:13;;;;;;;11.32;5.60;;;;;;;15.87;40.97;99968.78;21024228;28;20497;-67
2022/04/19 10:46:19;;;;;;;9.18;4.47;;;;;;;15.89;38.75;99955.50;21011942;28;20093;-67
2022/04/19 10:56:21;;;;;;;8.18;4.78;;;;;;;16.12;41.31;99955.34;21014869;28;20050;-67
2022/04/19 11:06:34;;;;;;;8.82;4.38;;;;;;;16.66;35.31;99940.47;21022137;28;20423;-67
2022/04/19 11:16:37;;;;;;;7.20;4.05;;;;;;;16.55;35.56;99924.25;21011381;28;20408;-67
2022/04/19 11:26:42;;;;;;;7.93;4.63;;;;;;;16.81;33.82;99928.31;21012767;28;20040;-68
2022/04/19 11:36:47;;;;;;;9.80;4.28;;;;;;;16.87;35.53;99912.16;21015769;28;20133;-68
2022/04/19 11:46:48;;;;;;;8.48;3.72;;;;;;;16.99;34.25;99892.19;21010983;28;20470;-67
2022/04/19 11:56:54;;;;;;;8.65;4.45;;;;;;;17.19;33.53;99894.66;21017118;28;20060;-67
2022/04/19 12:07:02;;;;;;;9.48;4.38;;;;;;;17.24;30.69;99885.63;21011300;28;20043;-67
2022/04/19 12:17:06;;;;;;;8.00;4.82;;;;;;;17.19;30.84;99883.22;21009052;28;20040;-67
2022/04/19 12:27:08;;;;;;;8.75;3.80;;;;;;;17.20;33.89;99869.09;21019756;28;20111;-70
2022/04/19 12:37:13;;;;;;;9.43;5.10;;;;;;;17.53;32.20;99868.22;21003165;28;20552;-68
2022/04/19 12:47:16;;;;;;;11.80;4.75;;;;;;;17.67;30.84;99853.31;21012200;28;20135;-67
2022/04/19 12:57:24;;;;;;;7.40;4.10;;;;;;;17.98;29.82;99840.25;21028430;28;20048;-67
2022/04/19 13:17:53;;;;;;;12.63;5.85;;;;;;;17.88;29.53;99816.06;21021299;28;20113;-68
2022/04/19 13:27:55;;;;;;;12.23;5.72;;;;;;;18.40;27.65;99805.19;21022654;28;20093;-66
2022/04/19 13:48:16;;;;;;;9.32;5.22;;;;;;;17.94;28.63;99786.59;21028562;28;20086;-67
2022/04/19 13:58:18;;;;;;;7.75;3.92;;;;;;;18.11;26.41;99788.28;21018248;28;20093;-68
2022/04/19 14:08:20;;;;;;;8.95;3.35;;;;;;;18.20;25.95;99786.00;21021591;28;20044;-67
2022/04/19 14:18:21;;;;;;;8.85;3.65;;;;;;;18.32;26.31;99780.94;21027622;28;20043;-64
2022/04/19 14:33:15;;;;;;;6.97;3.60;;;;;;;18.47;28.73;99780.03;21013695;28;20048;-65
2022/04/19 14:38:44;;;;;;;8.93;4.07;;;;;;;18.39;29.25;99779.63;21018171;28;20090;-63
2022/04/19 14:48:46;;;;;;;9.02;4.85;;;;;;;18.43;29.44;99778.50;21019061;28;20412;-63
2022/04/19 14:58:48;;;;;;;8.35;4.80;;;;;;;18.29;29.25;99775.78;21013096;28;20436;-63
2022/04/19 15:08:49;;;;;;;7.50;4.30;;;;;;;18.23;27.49;99779.66;21019027;28;20405;-66
2022/04/19 15:18:51;;;;;;;6.55;3.40;;;;;;;18.26;26.51;99765.38;21014106;28;20462;-67
2022/04/19 15:28:53;;;;;;;6.85;3.40;;;;;;;18.19;25.57;99765.72;21014245;28;20048;-63
2022/04/19 15:38:54;;;;;;;8.98;3.88;;;;;;;18.35;25.74;99770.13;21016445;28;20336;-64
2022/04/19 15:48:56;;;;;;;7.53;3.58;;;;;;;18.40;26.62;99773.41;21006156;28;20048;-63
2022/04/19 15:58:58;;;;;;;6.55;3.70;;;;;;;18.30;27.09;99761.59;21013808;28;20064;-64
2022/04/19 16:09:00;;;;;;;8.80;4.78;;;;;;;18.35;27.47;99760.41;20987918;28;20101;-64
2022/04/19 16:29:22;;;;;;;12.80;6.28;;;;;;;18.00;28.96;99765.06;20981831;28;20469;-64
2022/04/19 16:39:23;;;;;;;11.23;6.65;;;;;;;17.86;29.45;99751.72;20990637;28;20044;-63
2022/04/19 16:49:26;;;;;;;10.52;6.55;;;;;;;17.78;30.05;99764.56;20981171;28;20051;-64
2022/04/19 16:59:27;;;;;;;11.57;6.45;;;;;;;17.58;30.27;99752.38;20980577;28;20317;-64
2022/04/19 17:09:30;;;;;;;10.52;4.97;;;;;;;17.38;30.54;99753.47;20986275;28;20111;-63
2022/04/19 17:19:38;;;;;;;11.18;4.00;;;;;;;17.06;31.80;99760.50;20983976;28;20139;-64
2022/04/19 17:29:41;;;;;;;9.35;4.00;;;;;;;16.59;32.76;99766.41;20985964;28;20061;-64
2022/04/19 17:39:43;;;;;;;6.50;3.97;;;;;;;16.12;33.66;99767.81;20992186;28;20055;-64
2022/04/19 18:00:05;;;;;;;7.93;3.35;;;;;;;15.49;36.42;99777.81;20996804;28;20047;-64
2022/04/19 18:10:07;;;;;;;9.63;4.47;;;;;;;15.08;37.49;99790.22;20992500;28;20438;-63
2022/04/19 18:20:09;;;;;;;6.38;3.53;;;;;;;14.76;38.06;99808.28;20987951;28;20473;-63
2022/04/19 18:30:14;;;;;;;7.15;3.90;;;;;;;14.50;39.15;99821.69;20994303;28;20124;-63
2022/04/19 18:40:19;;;;;;;6.32;2.83;;;;;;;14.28;40.01;99833.06;20988770;28;20044;-63
2022/04/19 18:50:21;;;;;;;6.53;2.60;;;;;;;13.95;41.22;99845.78;20990470;28;20664;-63
2022/04/19 19:00:23;;;;;;;10.05;2.67;;;;;;;13.75;42.43;99879.84;20993482;28;20071;-63
2022/04/19 19:10:25;;;;;;;6.70;2.55;;;;;;;13.49;43.49;99894.81;20988495;28;20533;-63
2022/04/19 19:20:27;;;;;;;4.50;2.35;;;;;;;13.34;44.80;99913.78;20989180;28;20056;-62
2022/04/19 19:30:28;;;;;;;5.47;2.40;;;;;;;13.13;45.24;99922.34;20987390;28;20064;-63
2022/04/19 19:40:30;;;;;;;9.73;3.42;;;;;;;13.42;43.99;99935.41;20980403;28;20440;-63
2022/04/19 19:50:31;;;;;;;2.95;1.40;;;;;;;13.49;44.17;99950.06;20990875;28;20064;-63
2022/04/19 20:00:33;;;;;;;3.00;1.33;;;;;;;13.37;43.30;99966.28;20981244;28;20083;-63
2022/04/19 20:10:34;;;;;;;3.40;1.13;;;;;;;13.65;40.87;99974.03;20990398;28;20093;-63
2022/04/19 20:20:36;;;;;;;5.00;1.63;;;;;;;13.45;40.62;99993.16;20999954;28;20053;-63
2022/04/19 20:30:38;;;;;;;4.00;1.20;;;;;;;13.35;39.28;100002.25;21015714;28;20664;-63
2022/04/19 20:40:40;;;;;;;1.80;1.10;;;;;;;13.33;38.81;100020.72;21005948;28;20090;-63
2022/04/19 20:50:42;;;;;;;5.15;1.33;;;;;;;13.19;39.08;100029.94;21008820;28;20070;-65
2022/04/19 21:00:43;;;;;;;2.25;1.02;;;;;;;13.01;38.73;100028.75;21009273;28;20488;-65
2022/04/19 21:10:47;;;;;;;4.80;1.60;;;;;;;12.78;38.96;100061.00;21011466;28;20474;-65
2022/04/19 21:20:49;;;;;;;4.55;1.80;;;;;;;12.76;38.61;100070.69;21026982;28;20048;-64
2022/04/19 21:30:50;;;;;;;4.40;2.10;;;;;;;12.43;39.66;100083.91;21020133;28;20047;-65
2022/04/19 21:40:52;;;;;;;7.78;2.17;;;;;;;12.31;39.91;100102.63;21018173;28;20081;-65
2022/04/19 21:50:55;;;;;;;5.70;2.22;;;;;;;12.06;40.95;100110.28;21024736;28;20048;-65
2022/04/19 22:01:03;;;;;;;5.60;2.50;;;;;;;11.78;39.45;100110.09;21014675;28;20680;-64
2022/04/19 22:11:05;;;;;;;9.90;2.90;;;;;;;11.59;41.38;100112.31;21028035;28;20143;-64
2022/04/19 22:21:06;;;;;;;6.85;2.60;;;;;;;11.42;40.72;100112.75;21022093;28;20101;-65
2022/04/19 22:31:08;;;;;;;5.05;2.20;;;;;;;11.12;40.69;100123.94;21018410;28;20048;-65
2022/04/19 22:41:10;;;;;;;4.32;2.10;;;;;;;10.99;40.72;100129.44;21028869;28;20051;-65
2022/04/19 22:51:11;;;;;;;5.95;2.83;;;;;;;10.79;41.06;100134.25;21015495;28;20081;-65
2022/04/19 23:01:12;;;;;;;7.15;2.10;;;;;;;10.64;41.40;100137.19;21019145;28;20044;-65
2022/04/19 23:11:14;;;;;;;5.45;2.35;;;;;;;10.37;41.73;100136.84;21025320;28;20483;-64
2022/04/19 23:21:15;;;;;;;4.68;2.30;;;;;;;10.14;42.77;100144.22;21011926;28;20059;-65
2022/04/19 23:31:17;;;;;;;4.30;2.10;;;;;;;10.16;42.62;100139.81;21019694;28;20112;-65
2022/04/19 23:41:19;;;;;;;10.07;2.33;;;;;;;9.85;43.26;100131.63;21014246;28;20052;-65
2022/04/19 23:51:20;;;;;;;5.38;2.15;;;;;;;9.81;42.91;100127.34;21013437;28;20048;-64
